sensor_id;sensor_type;location;lat;lon;timestamp;P1;durP1;ratioP1;P2;durP2;ratioP2
82170;SDS011;71755;48.038;14.346;2023-08-06T00:02:16;5.13;;;3.20;;
82170;SDS011;71755;48.038;14.346;2023-08-06T00:04:45;5.57;;;2.85;;
82170;SDS011;71755;48.038;14.346;2023-08-06T00:07:11;6.80;;;2.97;;
82170;SDS011;71755;48.038;14.346;2023-08-06T00:09:37;4.80;;;2.75;;
82170;SDS011;71755;48.038;14.346;2023-08-06T00:12:04;4.82;;;2.97;;
82170;SDS011;71755;48.038;14.346;2023-08-06T00:14:30;8.18;;;3.30;;
82170;SDS011;71755;48.038;14.346;2023-08-06T00:16:56;6.03;;;3.08;;
82170;SDS011;71755;48.038;14.346;2023-08-06T00:19:22;4.85;;;2.85;;
82170;SDS011;71755;48.038;14.346;2023-08-06T00:21:49;5.45;;;2.90;;
82170;SDS011;71755;48.038;14.346;2023-08-06T00:24:15;6.32;;;3.13;;
82170;SDS011;71755;48.038;14.346;2023-08-06T00:26:42;9.00;;;4.18;;
82170;SDS011;71755;48.038;14.346;2023-08-06T00:29:08;5.15;;;3.13;;
82170;SDS011;71755;48.038;14.346;2023-08-06T00:31:34;7.22;;;2.85;;
82170;SDS011;71755;48.038;14.346;2023-08-06T00:34:00;7.63;;;3.45;;
82170;SDS011;71755;48.038;14.346;2023-08-06T00:36:26;7.32;;;2.88;;
82170;SDS011;71755;48.038;14.346;2023-08-06T00:38:52;4.75;;;2.63;;
82170;SDS011;71755;48.038;14.346;2023-08-06T00:41:19;8.05;;;3.10;;
82170;SDS011;71755;48.038;14.346;2023-08-06T00:43:44;7.60;;;4.15;;
82170;SDS011;71755;48.038;14.346;2023-08-06T00:46:12;6.43;;;3.72;;
82170;SDS011;71755;48.038;14.346;2023-08-06T00:51:08;6.18;;;3.65;;
82170;SDS011;71755;48.038;14.346;2023-08-06T00:53:37;6.38;;;2.78;;
82170;SDS011;71755;48.038;14.346;2023-08-06T00:56:05;6.45;;;2.88;;
82170;SDS011;71755;48.038;14.346;2023-08-06T00:58:34;5.55;;;2.85;;
82170;SDS011;71755;48.038;14.346;2023-08-06T01:01:01;5.43;;;3.63;;
82170;SDS011;71755;48.038;14.346;2023-08-06T01:03:27;9.57;;;4.63;;
82170;SDS011;71755;48.038;14.346;2023-08-06T01:05:53;7.40;;;3.85;;
82170;SDS011;71755;48.038;14.346;2023-08-06T01:08:35;5.95;;;3.58;;
82170;SDS011;71755;48.038;14.346;2023-08-06T01:13:55;5.95;;;3.22;;
82170;SDS011;71755;48.038;14.346;2023-08-06T01:16:30;7.68;;;4.45;;
82170;SDS011;71755;48.038;14.346;2023-08-06T01:21:27;8.40;;;3.63;;
82170;SDS011;71755;48.038;14.346;2023-08-06T01:23:54;6.82;;;3.38;;
82170;SDS011;71755;48.038;14.346;2023-08-06T01:26:28;6.65;;;3.75;;
82170;SDS011;71755;48.038;14.346;2023-08-06T01:31:59;5.40;;;3.05;;
82170;SDS011;71755;48.038;14.346;2023-08-06T01:34:28;5.25;;;3.60;;
82170;SDS011;71755;48.038;14.346;2023-08-06T01:36:59;4.57;;;2.63;;
82170;SDS011;71755;48.038;14.346;2023-08-06T01:39:26;6.85;;;4.20;;
82170;SDS011;71755;48.038;14.346;2023-08-06T01:41:54;5.60;;;2.90;;
82170;SDS011;71755;48.038;14.346;2023-08-06T01:44:20;4.22;;;2.83;;
82170;SDS011;71755;48.038;14.346;2023-08-06T01:46:48;5.68;;;2.97;;
82170;SDS011;71755;48.038;14.346;2023-08-06T01:49:14;7.72;;;2.83;;
82170;SDS011;71755;48.038;14.346;2023-08-06T01:51:40;5.10;;;2.83;;
82170;SDS011;71755;48.038;14.346;2023-08-06T01:54:06;6.72;;;3.65;;
82170;SDS011;71755;48.038;14.346;2023-08-06T01:56:32;7.60;;;4.10;;
82170;SDS011;71755;48.038;14.346;2023-08-06T01:59:00;4.93;;;2.55;;
82170;SDS011;71755;48.038;14.346;2023-08-06T02:01:26;6.40;;;3.72;;
82170;SDS011;71755;48.038;14.346;2023-08-06T02:03:52;4.20;;;2.50;;
82170;SDS011;71755;48.038;14.346;2023-08-06T02:06:17;7.53;;;3.58;;
82170;SDS011;71755;48.038;14.346;2023-08-06T02:08:44;7.20;;;3.20;;
82170;SDS011;71755;48.038;14.346;2023-08-06T02:11:09;4.53;;;2.78;;
82170;SDS011;71755;48.038;14.346;2023-08-06T02:13:35;3.92;;;2.33;;
82170;SDS011;71755;48.038;14.346;2023-08-06T02:16:02;5.72;;;2.80;;
82170;SDS011;71755;48.038;14.346;2023-08-06T02:18:30;5.47;;;2.67;;
82170;SDS011;71755;48.038;14.346;2023-08-06T02:20:58;3.03;;;1.95;;
82170;SDS011;71755;48.038;14.346;2023-08-06T02:23:25;4.90;;;2.53;;
82170;SDS011;71755;48.038;14.346;2023-08-06T02:26:00;4.32;;;2.50;;
82170;SDS011;71755;48.038;14.346;2023-08-06T02:28:28;4.90;;;2.88;;
82170;SDS011;71755;48.038;14.346;2023-08-06T02:30:55;5.70;;;2.83;;
82170;SDS011;71755;48.038;14.346;2023-08-06T02:33:21;7.10;;;2.83;;
82170;SDS011;71755;48.038;14.346;2023-08-06T02:35:48;5.32;;;3.38;;
82170;SDS011;71755;48.038;14.346;2023-08-06T02:38:14;8.00;;;3.40;;
82170;SDS011;71755;48.038;14.346;2023-08-06T02:40:46;5.97;;;3.75;;
82170;SDS011;71755;48.038;14.346;2023-08-06T02:43:13;7.50;;;4.00;;
82170;SDS011;71755;48.038;14.346;2023-08-06T02:45:40;8.07;;;3.50;;
82170;SDS011;71755;48.038;14.346;2023-08-06T02:48:07;6.50;;;3.33;;
82170;SDS011;71755;48.038;14.346;2023-08-06T02:50:43;6.30;;;3.03;;
82170;SDS011;71755;48.038;14.346;2023-08-06T02:53:10;7.22;;;3.42;;
82170;SDS011;71755;48.038;14.346;2023-08-06T02:55:37;5.65;;;3.10;;
82170;SDS011;71755;48.038;14.346;2023-08-06T02:58:02;6.05;;;3.28;;
82170;SDS011;71755;48.038;14.346;2023-08-06T03:00:28;9.23;;;3.63;;
82170;SDS011;71755;48.038;14.346;2023-08-06T03:02:55;8.98;;;3.58;;
82170;SDS011;71755;48.038;14.346;2023-08-06T03:05:21;6.15;;;4.00;;
82170;SDS011;71755;48.038;14.346;2023-08-06T03:07:47;8.57;;;3.20;;
82170;SDS011;71755;48.038;14.346;2023-08-06T03:10:14;6.90;;;3.83;;
82170;SDS011;71755;48.038;14.346;2023-08-06T03:12:40;7.05;;;3.53;;
82170;SDS011;71755;48.038;14.346;2023-08-06T03:15:07;4.43;;;2.58;;
82170;SDS011;71755;48.038;14.346;2023-08-06T03:17:36;5.95;;;2.85;;
82170;SDS011;71755;48.038;14.346;2023-08-06T03:20:02;5.53;;;3.47;;
82170;SDS011;71755;48.038;14.346;2023-08-06T03:22:28;4.97;;;2.55;;
82170;SDS011;71755;48.038;14.346;2023-08-06T03:24:54;8.25;;;3.78;;
82170;SDS011;71755;48.038;14.346;2023-08-06T03:27:21;6.50;;;3.20;;
82170;SDS011;71755;48.038;14.346;2023-08-06T03:29:50;5.55;;;2.92;;
82170;SDS011;71755;48.038;14.346;2023-08-06T03:32:18;4.45;;;2.05;;
82170;SDS011;71755;48.038;14.346;2023-08-06T03:34:45;5.15;;;2.58;;
82170;SDS011;71755;48.038;14.346;2023-08-06T03:37:12;4.68;;;2.47;;
82170;SDS011;71755;48.038;14.346;2023-08-06T03:39:37;5.03;;;2.70;;
82170;SDS011;71755;48.038;14.346;2023-08-06T03:42:04;4.65;;;3.65;;
82170;SDS011;71755;48.038;14.346;2023-08-06T03:44:31;4.82;;;1.92;;
82170;SDS011;71755;48.038;14.346;2023-08-06T03:46:57;6.45;;;2.58;;
82170;SDS011;71755;48.038;14.346;2023-08-06T03:49:23;5.30;;;2.78;;
82170;SDS011;71755;48.038;14.346;2023-08-06T03:51:49;3.63;;;2.28;;
82170;SDS011;71755;48.038;14.346;2023-08-06T03:54:15;4.32;;;2.28;;
82170;SDS011;71755;48.038;14.346;2023-08-06T03:56:42;4.75;;;2.58;;
82170;SDS011;71755;48.038;14.346;2023-08-06T03:59:09;2.75;;;2.10;;
82170;SDS011;71755;48.038;14.346;2023-08-06T04:01:35;4.25;;;2.30;;
82170;SDS011;71755;48.038;14.346;2023-08-06T04:04:03;3.78;;;2.45;;
82170;SDS011;71755;48.038;14.346;2023-08-06T04:06:28;3.33;;;2.20;;
82170;SDS011;71755;48.038;14.346;2023-08-06T04:08:55;4.40;;;2.30;;
82170;SDS011;71755;48.038;14.346;2023-08-06T04:11:21;4.25;;;2.13;;
82170;SDS011;71755;48.038;14.346;2023-08-06T04:13:47;3.72;;;2.22;;
82170;SDS011;71755;48.038;14.346;2023-08-06T04:16:13;3.78;;;1.45;;
82170;SDS011;71755;48.038;14.346;2023-08-06T04:18:40;2.58;;;1.77;;
82170;SDS011;71755;48.038;14.346;2023-08-06T04:21:07;4.53;;;2.22;;
82170;SDS011;71755;48.038;14.346;2023-08-06T04:23:34;8.02;;;2.67;;
82170;SDS011;71755;48.038;14.346;2023-08-06T04:26:01;3.08;;;1.90;;
82170;SDS011;71755;48.038;14.346;2023-08-06T04:28:27;2.67;;;2.00;;
82170;SDS011;71755;48.038;14.346;2023-08-06T04:30:54;3.55;;;2.10;;
82170;SDS011;71755;48.038;14.346;2023-08-06T04:33:20;3.25;;;1.50;;
82170;SDS011;71755;48.038;14.346;2023-08-06T04:35:46;2.55;;;1.38;;
82170;SDS011;71755;48.038;14.346;2023-08-06T04:38:13;2.05;;;1.35;;
82170;SDS011;71755;48.038;14.346;2023-08-06T04:40:41;3.58;;;1.77;;
82170;SDS011;71755;48.038;14.346;2023-08-06T04:43:07;3.75;;;2.50;;
82170;SDS011;71755;48.038;14.346;2023-08-06T04:45:33;2.17;;;1.88;;
82170;SDS011;71755;48.038;14.346;2023-08-06T04:48:01;4.45;;;2.10;;
82170;SDS011;71755;48.038;14.346;2023-08-06T04:50:28;2.25;;;0.90;;
82170;SDS011;71755;48.038;14.346;2023-08-06T04:55:25;4.35;;;2.08;;
82170;SDS011;71755;48.038;14.346;2023-08-06T04:57:53;3.15;;;2.35;;
82170;SDS011;71755;48.038;14.346;2023-08-06T05:00:26;3.58;;;1.58;;
82170;SDS011;71755;48.038;14.346;2023-08-06T05:02:53;3.80;;;1.40;;
82170;SDS011;71755;48.038;14.346;2023-08-06T05:05:27;3.42;;;1.98;;
82170;SDS011;71755;48.038;14.346;2023-08-06T05:08:00;2.42;;;1.30;;
82170;SDS011;71755;48.038;14.346;2023-08-06T05:15:43;6.25;;;1.40;;
82170;SDS011;71755;48.038;14.346;2023-08-06T05:21:08;3.30;;;1.67;;
82170;SDS011;71755;48.038;14.346;2023-08-06T05:23:37;2.03;;;1.55;;
82170;SDS011;71755;48.038;14.346;2023-08-06T05:31:30;4.15;;;1.98;;
82170;SDS011;71755;48.038;14.346;2023-08-06T05:34:02;2.92;;;1.88;;
82170;SDS011;71755;48.038;14.346;2023-08-06T05:36:30;4.85;;;2.25;;
82170;SDS011;71755;48.038;14.346;2023-08-06T05:38:56;3.20;;;1.83;;
82170;SDS011;71755;48.038;14.346;2023-08-06T05:44:14;3.28;;;1.65;;
82170;SDS011;71755;48.038;14.346;2023-08-06T05:49:29;4.93;;;2.50;;
82170;SDS011;71755;48.038;14.346;2023-08-06T05:54:27;2.75;;;1.92;;
82170;SDS011;71755;48.038;14.346;2023-08-06T05:56:55;2.78;;;2.30;;
82170;SDS011;71755;48.038;14.346;2023-08-06T05:59:21;4.28;;;2.45;;
82170;SDS011;71755;48.038;14.346;2023-08-06T06:01:47;6.88;;;2.25;;
82170;SDS011;71755;48.038;14.346;2023-08-06T06:04:14;6.47;;;3.13;;
82170;SDS011;71755;48.038;14.346;2023-08-06T06:06:40;3.95;;;2.00;;
82170;SDS011;71755;48.038;14.346;2023-08-06T06:12:01;4.47;;;2.78;;
82170;SDS011;71755;48.038;14.346;2023-08-06T06:14:30;4.95;;;2.90;;
82170;SDS011;71755;48.038;14.346;2023-08-06T06:17:06;6.93;;;2.40;;
82170;SDS011;71755;48.038;14.346;2023-08-06T06:19:32;3.45;;;1.90;;
82170;SDS011;71755;48.038;14.346;2023-08-06T06:27:59;3.60;;;2.20;;
82170;SDS011;71755;48.038;14.346;2023-08-06T06:30:32;2.30;;;1.80;;
82170;SDS011;71755;48.038;14.346;2023-08-06T06:33:02;3.25;;;2.05;;
82170;SDS011;71755;48.038;14.346;2023-08-06T06:35:30;3.08;;;1.90;;
82170;SDS011;71755;48.038;14.346;2023-08-06T06:42:58;3.90;;;2.17;;
82170;SDS011;71755;48.038;14.346;2023-08-06T06:45:25;3.33;;;2.50;;
82170;SDS011;71755;48.038;14.346;2023-08-06T06:47:51;3.25;;;2.17;;
82170;SDS011;71755;48.038;14.346;2023-08-06T06:52:55;3.80;;;2.35;;
82170;SDS011;71755;48.038;14.346;2023-08-06T06:55:30;4.70;;;2.47;;
82170;SDS011;71755;48.038;14.346;2023-08-06T06:57:59;3.53;;;2.22;;
82170;SDS011;71755;48.038;14.346;2023-08-06T07:00:30;3.60;;;2.08;;
82170;SDS011;71755;48.038;14.346;2023-08-06T07:11:30;3.75;;;2.05;;
82170;SDS011;71755;48.038;14.346;2023-08-06T07:14:14;3.15;;;1.42;;
82170;SDS011;71755;48.038;14.346;2023-08-06T07:19:16;6.50;;;1.83;;
82170;SDS011;71755;48.038;14.346;2023-08-06T07:24:30;2.53;;;1.60;;
82170;SDS011;71755;48.038;14.346;2023-08-06T07:27:02;5.82;;;2.75;;
82170;SDS011;71755;48.038;14.346;2023-08-06T07:29:30;4.55;;;2.63;;
82170;SDS011;71755;48.038;14.346;2023-08-06T07:34:58;3.25;;;2.05;;
82170;SDS011;71755;48.038;14.346;2023-08-06T07:37:30;3.65;;;1.75;;
82170;SDS011;71755;48.038;14.346;2023-08-06T07:40:03;3.15;;;1.95;;
82170;SDS011;71755;48.038;14.346;2023-08-06T07:42:30;4.20;;;2.33;;
82170;SDS011;71755;48.038;14.346;2023-08-06T07:44:57;3.67;;;1.95;;
82170;SDS011;71755;48.038;14.346;2023-08-06T07:47:30;2.13;;;1.38;;
82170;SDS011;71755;48.038;14.346;2023-08-06T07:50:02;5.57;;;1.92;;
82170;SDS011;71755;48.038;14.346;2023-08-06T07:52:30;3.63;;;1.98;;
82170;SDS011;71755;48.038;14.346;2023-08-06T08:00:11;3.38;;;2.15;;
82170;SDS011;71755;48.038;14.346;2023-08-06T08:05:16;3.17;;;1.80;;
82170;SDS011;71755;48.038;14.346;2023-08-06T08:07:41;5.18;;;2.22;;
82170;SDS011;71755;48.038;14.346;2023-08-06T08:12:41;2.80;;;1.80;;
82170;SDS011;71755;48.038;14.346;2023-08-06T08:15:10;9.07;;;1.65;;
82170;SDS011;71755;48.038;14.346;2023-08-06T08:17:49;3.47;;;1.52;;
82170;SDS011;71755;48.038;14.346;2023-08-06T08:20:27;3.35;;;1.90;;
82170;SDS011;71755;48.038;14.346;2023-08-06T08:22:57;4.90;;;1.92;;
82170;SDS011;71755;48.038;14.346;2023-08-06T08:25:28;1.95;;;1.40;;
82170;SDS011;71755;48.038;14.346;2023-08-06T08:27:54;2.03;;;1.20;;
82170;SDS011;71755;48.038;14.346;2023-08-06T08:30:21;3.35;;;1.60;;
82170;SDS011;71755;48.038;14.346;2023-08-06T08:32:52;2.67;;;1.30;;
82170;SDS011;71755;48.038;14.346;2023-08-06T08:35:31;2.85;;;1.70;;
82170;SDS011;71755;48.038;14.346;2023-08-06T08:48:30;3.33;;;1.42;;
82170;SDS011;71755;48.038;14.346;2023-08-06T08:51:01;3.10;;;1.55;;
82170;SDS011;71755;48.038;14.346;2023-08-06T08:53:30;3.95;;;1.95;;
82170;SDS011;71755;48.038;14.346;2023-08-06T08:55:57;2.08;;;1.55;;
82170;SDS011;71755;48.038;14.346;2023-08-06T08:58:27;3.10;;;1.80;;
82170;SDS011;71755;48.038;14.346;2023-08-06T09:00:54;2.15;;;1.70;;
82170;SDS011;71755;48.038;14.346;2023-08-06T09:05:57;3.80;;;1.73;;
82170;SDS011;71755;48.038;14.346;2023-08-06T09:11:17;2.60;;;1.65;;
82170;SDS011;71755;48.038;14.346;2023-08-06T09:18:56;7.13;;;2.70;;
82170;SDS011;71755;48.038;14.346;2023-08-06T09:27:30;5.23;;;2.77;;
82170;SDS011;71755;48.038;14.346;2023-08-06T09:29:56;1.92;;;1.40;;
82170;SDS011;71755;48.038;14.346;2023-08-06T09:35:30;2.42;;;1.48;;
82170;SDS011;71755;48.038;14.346;2023-08-06T09:38:08;4.22;;;1.95;;
82170;SDS011;71755;48.038;14.346;2023-08-06T09:40:43;4.47;;;1.45;;
82170;SDS011;71755;48.038;14.346;2023-08-06T09:43:09;2.45;;;1.50;;
82170;SDS011;71755;48.038;14.346;2023-08-06T09:45:38;2.10;;;1.08;;
82170;SDS011;71755;48.038;14.346;2023-08-06T09:56:25;2.13;;;1.38;;
82170;SDS011;71755;48.038;14.346;2023-08-06T09:58:52;1.52;;;0.88;;
82170;SDS011;71755;48.038;14.346;2023-08-06T10:01:20;1.88;;;1.30;;
82170;SDS011;71755;48.038;14.346;2023-08-06T10:03:55;5.18;;;1.73;;
82170;SDS011;71755;48.038;14.346;2023-08-06T10:06:31;2.00;;;1.25;;
82170;SDS011;71755;48.038;14.346;2023-08-06T10:09:06;3.15;;;0.90;;
82170;SDS011;71755;48.038;14.346;2023-08-06T10:14:33;1.23;;;0.98;;
82170;SDS011;71755;48.038;14.346;2023-08-06T10:17:09;4.43;;;0.88;;
82170;SDS011;71755;48.038;14.346;2023-08-06T10:25:16;2.03;;;1.50;;
82170;SDS011;71755;48.038;14.346;2023-08-06T10:30:30;2.28;;;1.25;;
82170;SDS011;71755;48.038;14.346;2023-08-06T10:33:08;4.05;;;1.77;;
82170;SDS011;71755;48.038;14.346;2023-08-06T10:35:45;1.50;;;1.00;;
82170;SDS011;71755;48.038;14.346;2023-08-06T10:38:29;0.95;;;0.70;;
82170;SDS011;71755;48.038;14.346;2023-08-06T10:41:02;1.27;;;0.93;;
82170;SDS011;71755;48.038;14.346;2023-08-06T10:46:02;1.65;;;0.80;;
82170;SDS011;71755;48.038;14.346;2023-08-06T10:51:11;2.00;;;0.90;;
82170;SDS011;71755;48.038;14.346;2023-08-06T10:58:57;1.48;;;0.70;;
82170;SDS011;71755;48.038;14.346;2023-08-06T11:04:14;3.45;;;0.50;;
82170;SDS011;71755;48.038;14.346;2023-08-06T11:06:43;3.50;;;0.68;;
82170;SDS011;71755;48.038;14.346;2023-08-06T11:11:57;0.80;;;0.80;;
82170;SDS011;71755;48.038;14.346;2023-08-06T11:14:30;1.95;;;1.05;;
82170;SDS011;71755;48.038;14.346;2023-08-06T11:16:59;1.60;;;1.05;;
82170;SDS011;71755;48.038;14.346;2023-08-06T11:21:56;1.85;;;0.75;;
82170;SDS011;71755;48.038;14.346;2023-08-06T11:24:29;1.13;;;0.60;;
82170;SDS011;71755;48.038;14.346;2023-08-06T11:27:12;3.28;;;0.73;;
82170;SDS011;71755;48.038;14.346;2023-08-06T11:29:41;0.50;;;0.50;;
82170;SDS011;71755;48.038;14.346;2023-08-06T11:34:59;1.42;;;0.30;;
82170;SDS011;71755;48.038;14.346;2023-08-06T11:39:57;3.00;;;0.80;;
82170;SDS011;71755;48.038;14.346;2023-08-06T11:45:14;0.57;;;0.40;;
82170;SDS011;71755;48.038;14.346;2023-08-06T11:47:56;0.28;;;0.28;;
82170;SDS011;71755;48.038;14.346;2023-08-06T11:50:29;0.85;;;0.60;;
82170;SDS011;71755;48.038;14.346;2023-08-06T11:58:59;0.65;;;0.40;;
82170;SDS011;71755;48.038;14.346;2023-08-06T12:01:28;0.30;;;0.30;;
82170;SDS011;71755;48.038;14.346;2023-08-06T12:04:11;2.28;;;0.32;;
82170;SDS011;71755;48.038;14.346;2023-08-06T12:23:29;1.00;;;0.38;;
82170;SDS011;71755;48.038;14.346;2023-08-06T12:25:58;0.40;;;0.40;;
82170;SDS011;71755;48.038;14.346;2023-08-06T12:28:29;1.15;;;0.35;;
82170;SDS011;71755;48.038;14.346;2023-08-06T12:31:04;2.58;;;0.28;;
82170;SDS011;71755;48.038;14.346;2023-08-06T12:36:14;1.38;;;0.30;;
82170;SDS011;71755;48.038;14.346;2023-08-06T12:38:49;0.38;;;0.30;;
82170;SDS011;71755;48.038;14.346;2023-08-06T12:43:46;4.18;;;0.28;;
82170;SDS011;71755;48.038;14.346;2023-08-06T12:48:56;0.20;;;0.10;;
82170;SDS011;71755;48.038;14.346;2023-08-06T12:51:24;0.30;;;0.30;;
82170;SDS011;71755;48.038;14.346;2023-08-06T12:53:50;0.30;;;0.30;;
82170;SDS011;71755;48.038;14.346;2023-08-06T12:56:16;0.75;;;0.20;;
82170;SDS011;71755;48.038;14.346;2023-08-06T12:58:44;2.72;;;0.47;;
82170;SDS011;71755;48.038;14.346;2023-08-06T13:01:15;2.80;;;0.40;;
82170;SDS011;71755;48.038;14.346;2023-08-06T13:03:41;0.20;;;0.20;;
82170;SDS011;71755;48.038;14.346;2023-08-06T13:06:06;0.35;;;0.30;;
82170;SDS011;71755;48.038;14.346;2023-08-06T13:08:35;0.38;;;0.38;;
82170;SDS011;71755;48.038;14.346;2023-08-06T13:11:02;0.47;;;0.30;;
82170;SDS011;71755;48.038;14.346;2023-08-06T13:13:29;3.33;;;0.47;;
82170;SDS011;71755;48.038;14.346;2023-08-06T13:15:54;0.63;;;0.63;;
82170;SDS011;71755;48.038;14.346;2023-08-06T13:18:20;0.25;;;0.25;;
82170;SDS011;71755;48.038;14.346;2023-08-06T13:20:48;0.47;;;0.40;;
82170;SDS011;71755;48.038;14.346;2023-08-06T13:23:18;0.65;;;0.28;;
82170;SDS011;71755;48.038;14.346;2023-08-06T13:25:43;0.43;;;0.30;;
82170;SDS011;71755;48.038;14.346;2023-08-06T13:28:10;0.90;;;0.30;;
82170;SDS011;71755;48.038;14.346;2023-08-06T13:30:36;0.40;;;0.40;;
82170;SDS011;71755;48.038;14.346;2023-08-06T13:33:10;0.20;;;0.20;;
82170;SDS011;71755;48.038;14.346;2023-08-06T13:35:37;0.10;;;0.10;;
82170;SDS011;71755;48.038;14.346;2023-08-06T13:38:04;0.20;;;0.20;;
82170;SDS011;71755;48.038;14.346;2023-08-06T13:40:32;1.00;;;0.20;;
82170;SDS011;71755;48.038;14.346;2023-08-06T13:42:59;0.20;;;0.20;;
82170;SDS011;71755;48.038;14.346;2023-08-06T13:45:26;5.72;;;0.30;;
82170;SDS011;71755;48.038;14.346;2023-08-06T13:47:52;1.90;;;0.10;;
82170;SDS011;71755;48.038;14.346;2023-08-06T13:50:21;0.38;;;0.22;;
82170;SDS011;71755;48.038;14.346;2023-08-06T13:52:50;0.30;;;0.30;;
82170;SDS011;71755;48.038;14.346;2023-08-06T13:55:18;0.20;;;0.20;;
82170;SDS011;71755;48.038;14.346;2023-08-06T13:57:44;0.30;;;0.30;;
82170;SDS011;71755;48.038;14.346;2023-08-06T14:00:10;0.30;;;0.25;;
82170;SDS011;71755;48.038;14.346;2023-08-06T14:02:36;0.77;;;0.35;;
82170;SDS011;71755;48.038;14.346;2023-08-06T14:05:02;0.20;;;0.20;;
82170;SDS011;71755;48.038;14.346;2023-08-06T14:07:29;0.20;;;0.20;;
82170;SDS011;71755;48.038;14.346;2023-08-06T14:09:55;0.20;;;0.20;;
82170;SDS011;71755;48.038;14.346;2023-08-06T14:12:22;0.20;;;0.20;;
82170;SDS011;71755;48.038;14.346;2023-08-06T14:14:48;0.22;;;0.22;;
82170;SDS011;71755;48.038;14.346;2023-08-06T14:17:14;1.17;;;0.22;;
82170;SDS011;71755;48.038;14.346;2023-08-06T14:19:41;0.43;;;0.17;;
82170;SDS011;71755;48.038;14.346;2023-08-06T14:22:07;0.20;;;0.20;;
82170;SDS011;71755;48.038;14.346;2023-08-06T14:24:33;0.20;;;0.20;;
82170;SDS011;71755;48.038;14.346;2023-08-06T14:26:59;0.10;;;0.10;;
82170;SDS011;71755;48.038;14.346;2023-08-06T14:29:25;0.13;;;0.13;;
82170;SDS011;71755;48.038;14.346;2023-08-06T14:31:51;0.10;;;0.10;;
82170;SDS011;71755;48.038;14.346;2023-08-06T14:34:17;2.72;;;0.20;;
82170;SDS011;71755;48.038;14.346;2023-08-06T14:36:43;0.13;;;0.13;;
82170;SDS011;71755;48.038;14.346;2023-08-06T14:39:10;0.28;;;0.20;;
82170;SDS011;71755;48.038;14.346;2023-08-06T14:41:36;0.17;;;0.17;;
82170;SDS011;71755;48.038;14.346;2023-08-06T14:44:02;0.20;;;0.20;;
82170;SDS011;71755;48.038;14.346;2023-08-06T14:46:29;0.10;;;0.10;;
82170;SDS011;71755;48.038;14.346;2023-08-06T14:48:54;0.38;;;0.15;;
82170;SDS011;71755;48.038;14.346;2023-08-06T14:51:21;0.15;;;0.15;;
82170;SDS011;71755;48.038;14.346;2023-08-06T14:53:47;0.30;;;0.30;;
82170;SDS011;71755;48.038;14.346;2023-08-06T14:56:14;0.10;;;0.10;;
82170;SDS011;71755;48.038;14.346;2023-08-06T14:58:40;0.10;;;0.10;;
82170;SDS011;71755;48.038;14.346;2023-08-06T15:01:07;0.63;;;0.30;;
82170;SDS011;71755;48.038;14.346;2023-08-06T15:03:34;0.30;;;0.20;;
82170;SDS011;71755;48.038;14.346;2023-08-06T15:06:00;0.30;;;0.30;;
82170;SDS011;71755;48.038;14.346;2023-08-06T15:08:26;1.17;;;0.30;;
82170;SDS011;71755;48.038;14.346;2023-08-06T15:10:52;0.25;;;0.20;;
82170;SDS011;71755;48.038;14.346;2023-08-06T15:13:19;0.28;;;0.20;;
82170;SDS011;71755;48.038;14.346;2023-08-06T15:15:49;0.20;;;0.20;;
82170;SDS011;71755;48.038;14.346;2023-08-06T15:18:15;0.20;;;0.20;;
82170;SDS011;71755;48.038;14.346;2023-08-06T15:20:42;0.20;;;0.20;;
82170;SDS011;71755;48.038;14.346;2023-08-06T15:23:08;0.50;;;0.30;;
82170;SDS011;71755;48.038;14.346;2023-08-06T15:25:34;0.20;;;0.20;;
82170;SDS011;71755;48.038;14.346;2023-08-06T15:28:00;1.25;;;0.25;;
82170;SDS011;71755;48.038;14.346;2023-08-06T15:30:26;0.50;;;0.38;;
82170;SDS011;71755;48.038;14.346;2023-08-06T15:32:52;0.20;;;0.20;;
82170;SDS011;71755;48.038;14.346;2023-08-06T15:35:18;0.10;;;0.10;;
82170;SDS011;71755;48.038;14.346;2023-08-06T15:37:44;0.25;;;0.15;;
82170;SDS011;71755;48.038;14.346;2023-08-06T15:40:11;0.43;;;0.30;;
82170;SDS011;71755;48.038;14.346;2023-08-06T15:42:37;0.20;;;0.20;;
82170;SDS011;71755;48.038;14.346;2023-08-06T15:45:03;0.20;;;0.20;;
82170;SDS011;71755;48.038;14.346;2023-08-06T15:47:29;0.55;;;0.20;;
82170;SDS011;71755;48.038;14.346;2023-08-06T15:49:55;0.10;;;0.10;;
82170;SDS011;71755;48.038;14.346;2023-08-06T15:52:21;0.20;;;0.20;;
82170;SDS011;71755;48.038;14.346;2023-08-06T15:54:46;0.10;;;0.10;;
82170;SDS011;71755;48.038;14.346;2023-08-06T15:57:12;0.17;;;0.17;;
82170;SDS011;71755;48.038;14.346;2023-08-06T15:59:38;0.10;;;0.10;;
82170;SDS011;71755;48.038;14.346;2023-08-06T16:02:04;1.05;;;0.65;;
82170;SDS011;71755;48.038;14.346;2023-08-06T16:04:32;0.17;;;0.17;;
82170;SDS011;71755;48.038;14.346;2023-08-06T16:06:58;0.10;;;0.10;;
82170;SDS011;71755;48.038;14.346;2023-08-06T16:09:25;1.20;;;0.30;;
82170;SDS011;71755;48.038;14.346;2023-08-06T16:11:51;0.17;;;0.08;;
82170;SDS011;71755;48.038;14.346;2023-08-06T16:14:19;0.20;;;0.20;;
82170;SDS011;71755;48.038;14.346;2023-08-06T16:16:46;0.20;;;0.20;;
82170;SDS011;71755;48.038;14.346;2023-08-06T16:19:12;0.75;;;0.25;;
82170;SDS011;71755;48.038;14.346;2023-08-06T16:21:38;4.57;;;0.30;;
82170;SDS011;71755;48.038;14.346;2023-08-06T16:24:04;0.10;;;0.10;;
82170;SDS011;71755;48.038;14.346;2023-08-06T16:26:31;1.42;;;0.10;;
82170;SDS011;71755;48.038;14.346;2023-08-06T16:28:57;5.82;;;0.20;;
82170;SDS011;71755;48.038;14.346;2023-08-06T16:31:23;0.45;;;0.13;;
82170;SDS011;71755;48.038;14.346;2023-08-06T16:33:49;0.10;;;0.10;;
82170;SDS011;71755;48.038;14.346;2023-08-06T16:36:15;1.35;;;0.30;;
82170;SDS011;71755;48.038;14.346;2023-08-06T16:38:41;0.20;;;0.20;;
82170;SDS011;71755;48.038;14.346;2023-08-06T16:41:07;0.20;;;0.20;;
82170;SDS011;71755;48.038;14.346;2023-08-06T16:43:33;0.68;;;0.20;;
82170;SDS011;71755;48.038;14.346;2023-08-06T16:46:00;0.10;;;0.10;;
82170;SDS011;71755;48.038;14.346;2023-08-06T16:48:27;0.20;;;0.20;;
82170;SDS011;71755;48.038;14.346;2023-08-06T16:50:57;0.20;;;0.20;;
82170;SDS011;71755;48.038;14.346;2023-08-06T16:53:25;2.38;;;0.20;;
82170;SDS011;71755;48.038;14.346;2023-08-06T16:55:52;2.95;;;0.25;;
82170;SDS011;71755;48.038;14.346;2023-08-06T16:58:19;0.20;;;0.20;;
82170;SDS011;71755;48.038;14.346;2023-08-06T17:00:46;0.10;;;0.10;;
82170;SDS011;71755;48.038;14.346;2023-08-06T17:03:15;3.30;;;1.20;;
82170;SDS011;71755;48.038;14.346;2023-08-06T17:05:43;0.93;;;0.30;;
82170;SDS011;71755;48.038;14.346;2023-08-06T17:08:10;0.22;;;0.22;;
82170;SDS011;71755;48.038;14.346;2023-08-06T17:10:36;0.20;;;0.20;;
82170;SDS011;71755;48.038;14.346;2023-08-06T17:13:06;0.30;;;0.30;;
82170;SDS011;71755;48.038;14.346;2023-08-06T17:15:32;0.20;;;0.20;;
82170;SDS011;71755;48.038;14.346;2023-08-06T17:17:58;0.10;;;0.10;;
82170;SDS011;71755;48.038;14.346;2023-08-06T17:20:25;0.93;;;0.43;;
82170;SDS011;71755;48.038;14.346;2023-08-06T17:22:52;3.20;;;0.20;;
82170;SDS011;71755;48.038;14.346;2023-08-06T17:25:17;0.10;;;0.10;;
82170;SDS011;71755;48.038;14.346;2023-08-06T17:27:46;0.38;;;0.30;;
82170;SDS011;71755;48.038;14.346;2023-08-06T17:30:12;0.98;;;0.40;;
82170;SDS011;71755;48.038;14.346;2023-08-06T17:32:38;0.10;;;0.10;;
82170;SDS011;71755;48.038;14.346;2023-08-06T17:35:05;0.63;;;0.10;;
82170;SDS011;71755;48.038;14.346;2023-08-06T17:37:31;0.10;;;0.10;;
82170;SDS011;71755;48.038;14.346;2023-08-06T17:39:57;0.30;;;0.30;;
82170;SDS011;71755;48.038;14.346;2023-08-06T17:42:23;0.10;;;0.10;;
82170;SDS011;71755;48.038;14.346;2023-08-06T17:44:49;0.55;;;0.20;;